Aérodrome :
LOGIN :

S'inscrire | Disclaimer

   EN    FR    IT 

 










Légende :    VFR   VFR Marginal   IFR   IFR Intensif   IFR Très Intensif
Visi : 
Plafond : 
>= 8 km
>= 3000ft
5 à 8 km
1000 à 3000 ft
1500m à 5 km
500 à 1000 ft
800 à 1500m
200 à 500 ft
< 800m
< 200 ft
Symboles :   Orages  Brouillard  Fortes neiges  Fortes précipitations  Vent > 20 kt
SIGMETs :   Divers  Orages  Givrage  Turbulence  Onde Orograph.  Cendres Volcan.






- Altitude de l'aérodrome : 194 ft
- Code IATA : ANE


LFJR - Angers Marcé

DERNIER METAR :
  • 241230Z AUTO 21017G28KT 190V260 9999 -RA FEW018/// BKN034/// OVC046/// ///TCU 08/04 Q1001

METARs EXPIRÉS :
  • 241200Z AUTO 22015KT 9999 FEW027/// SCT036/// BKN043/// ///TCU 09/04 Q1002
  • 241130Z AUTO 21015KT 9999 BKN026 BKN031 BKN054 09/04 Q1002
  • 241100Z AUTO 21013KT 180V240 9999 FEW025 SCT066 10/04 Q1001
  • 241030Z AUTO 21012KT CAVOK 09/05 Q1002
  • 241000Z AUTO 21009KT 160V240 CAVOK 08/05 Q1001
  • 240930Z AUTO 21010KT 9999 FEW035 SCT220 07/04 Q1001
  • 240900Z AUTO 21007KT CAVOK 05/03 Q1001
  • 240830Z AUTO 20005KT CAVOK 04/03 Q1001
  • 240800Z AUTO 19004KT CAVOK 02/02 Q1001

Prévision TAF périmée.



MET'MAP, la Météo Aéronautique d'un coup d'oeil ! - Copyright ORBIFLY Décembre 2007 - Disclaimer

ORBIFLY MET'MAP TEAM :

Programmation & Développement : Alexandra Zaïnal
Sur une idée originale de : Baudouin d'Aumeries
Soutien technique & logistique : Manuel Goepfert
Assistance : Marc-Olivier Méhu




SOURCES & CREDITS :

   NOAA